Waynesville, NC

4:06 PM EST on March 03, 2015 (GMT -0500)
VOPC | Change Station
CLOSE
Current Station
Personal Weather Station
Location: Waynesville, NC
Elevation: 4012 ft
Nearby Weather Stations

Elev 4012 ft 35.49 °N, 83.07 °W | Updated 10 minutes ago

Overcast
Overcast
56.1 °F
Feels Like 56.1 °F
N
3.2
Wind Variable Wind from East

Today
High -- | Low -- °F
--% Chance of Precip.
Yesterday
High -- | Low -- °F
Precip. -- in
6:59 AM 6:28 PM
Waxing Gibbous, 97% visible
Pressure 30.12 in
Visibility 10.0 miles
Clouds Overcast 1100 ft
Dew Point 53 °F
Humidity 90%
Rainfall 0.02 in
Snow Depth Not available.
UV 1 out of 12
Pollen 2.40 out of 12
Air Quality Not available.
Flu Activity Not available.
SPECI KAVL 032101Z 15007KT 10SM OVC011 11/06 A3012 RMK AO2 T01110061

More Conditions Fewer Conditions

Pressure 30.12 in
Visibility 10.0 miles
Clouds Overcast 1100 ft
Dew Point 53 °F
Humidity 90%
Rainfall 0.02 in
Snow Depth Not available.
UV 1 out of 12
Pollen 2.40 out of 12
Air Quality Not available.
Flu Activity Not available.
SPECI KAVL 032101Z 15007KT 10SM OVC011 11/06 A3012 RMK AO2 T01110061

More Conditions Fewer Conditions

10-Day Weather Forecast

Almanac

Astronomy

Mar. 03, 2015 Rise Set
Actual Time
Civil Twilight
Nautical Twilight
Astronomical Twilight
Moon
Length of Visible Light
Length of Day
Tomorrow will be .
, % of the Moon is Illuminated

Today's Extremes

State Highs State Lows

Community

WunderPhotos

Upload Photos

1,802,254 photos uploaded!

WunderBlogs® & News

Nearby

Air Quality

  Air Quality AQ Index Pollutant
Not available.

Snow Depth

Station Depth Elevation

Earthquake Activity

City Distance Mag. Time & Date
Minimum magnitude displayed is 2.5.

Coastal Water Temperatures

Place Temperature

Nearby Weather Stations